Time;durP1;ratioP1;P1;durP2;ratioP2;P2;SDS_P1;SDS_P2;PMS_P1;PMS_P2;Temp;Humidity;BMP_temperature;BMP_pressure;BME280_temperature;BME280_humidity;BME280_pressure;Samples;Min_cycle;Max_cycle;Signal;HPM_P1;HPM_P2
2020/12/25 00:00:55;;;;;;;7.60;5.78;;;;;;;;;;5094140;28;20583;-61
2020/12/25 00:03:22;;;;;;;7.20;5.50;;;;;;;;;;5094547;28;20269;-61
2020/12/25 00:05:49;;;;;;;9.15;5.97;;;;;;;;;;5094322;28;20227;-62
2020/12/25 00:08:16;;;;;;;7.55;6.53;;;;;;;;;;5094369;28;20311;-60
2020/12/25 00:10:43;;;;;;;11.00;5.82;;;;;;;;;;5096093;28;20256;-60
2020/12/25 00:13:09;;;;;;;5.38;4.80;;;;;;;;;;5095387;28;20665;-61
2020/12/25 00:15:36;;;;;;;11.23;5.95;;;;;;;;;;5094415;28;20204;-61
2020/12/25 00:18:04;;;;;;;6.80;6.03;;;;;;;;;;5094612;28;20196;-61
2020/12/25 00:20:30;;;;;;;6.85;6.03;;;;;;;;;;5094669;28;20204;-60
2020/12/25 00:22:57;;;;;;;9.60;6.38;;;;;;;;;;5096039;28;20220;-61
2020/12/25 00:25:24;;;;;;;7.03;5.22;;;;;;;;;;5098597;28;20210;-61
2020/12/25 00:27:51;;;;;;;7.60;5.60;;;;;;;;;;5098326;28;20216;-61
2020/12/25 00:30:17;;;;;;;7.90;5.18;;;;;;;;;;5098179;28;20200;-61
2020/12/25 00:32:44;;;;;;;6.05;5.03;;;;;;;;;;5097665;28;20719;-61
2020/12/25 00:35:12;;;;;;;6.38;5.75;;;;;;;;;;5098025;28;20200;-61
2020/12/25 00:37:38;;;;;;;6.68;4.40;;;;;;;;;;5098051;28;20192;-61
2020/12/25 00:40:05;;;;;;;8.13;5.53;;;;;;;;;;5097788;28;20215;-62
2020/12/25 00:42:32;;;;;;;6.22;5.03;;;;;;;;;;5097716;28;20277;-60
2020/12/25 00:44:58;;;;;;;8.50;5.47;;;;;;;;;;5097511;28;20737;-60
2020/12/25 00:47:25;;;;;;;6.03;4.70;;;;;;;;;;5097325;28;20694;-60
2020/12/25 00:49:52;;;;;;;7.40;4.90;;;;;;;;;;5097571;28;20204;-61
2020/12/25 00:52:20;;;;;;;10.20;5.90;;;;;;;;;;5097131;28;20225;-61
2020/12/25 00:54:46;;;;;;;5.63;5.00;;;;;;;;;;5097332;28;20203;-61
2020/12/25 00:57:13;;;;;;;6.55;4.90;;;;;;;;;;5097371;28;20664;-60
2020/12/25 00:59:40;;;;;;;5.05;4.55;;;;;;;;;;5097844;28;20204;-61
2020/12/25 01:02:06;;;;;;;5.80;5.30;;;;;;;;;;5099302;28;20221;-60
2020/12/25 01:04:33;;;;;;;5.30;4.80;;;;;;;;;;5100157;28;20203;-60
2020/12/25 01:07:00;;;;;;;7.43;4.35;;;;;;;;;;5096800;28;20208;-60
2020/12/25 01:09:28;;;;;;;8.15;6.00;;;;;;;;;;5097369;28;20599;-60
2020/12/25 01:11:54;;;;;;;6.38;4.90;;;;;;;;;;5097248;28;20204;-61
2020/12/25 01:14:21;;;;;;;7.10;5.28;;;;;;;;;;5097213;28;20608;-61
2020/12/25 01:16:48;;;;;;;5.72;4.82;;;;;;;;;;5096836;28;20241;-61
2020/12/25 01:19:14;;;;;;;6.68;5.45;;;;;;;;;;5097067;28;20265;-60
2020/12/25 01:21:41;;;;;;;7.50;5.15;;;;;;;;;;5097066;28;20200;-61
2020/12/25 01:24:08;;;;;;;8.48;5.22;;;;;;;;;;5096774;28;20687;-60
2020/12/25 01:26:36;;;;;;;5.68;5.15;;;;;;;;;;5102164;28;20223;-61
2020/12/25 01:29:03;;;;;;;5.38;4.90;;;;;;;;;;5102231;28;20286;-61
2020/12/25 01:31:30;;;;;;;6.38;5.50;;;;;;;;;;5096814;28;20636;-61
2020/12/25 01:33:57;;;;;;;4.82;4.38;;;;;;;;;;5095863;28;20726;-60
2020/12/25 01:36:24;;;;;;;7.60;4.68;;;;;;;;;;5096556;28;20205;-61
2020/12/25 01:38:50;;;;;;;5.95;4.60;;;;;;;;;;5096023;28;20703;-60
2020/12/25 01:41:17;;;;;;;8.23;5.05;;;;;;;;;;5096236;28;20208;-60
2020/12/25 01:43:45;;;;;;;7.28;6.03;;;;;;;;;;5096331;28;20224;-61
2020/12/25 01:46:12;;;;;;;5.85;4.70;;;;;;;;;;5096178;28;20200;-60
2020/12/25 01:48:39;;;;;;;11.30;5.07;;;;;;;;;;5095771;28;20223;-61
2020/12/25 01:51:06;;;;;;;5.75;5.15;;;;;;;;;;5096168;28;20196;-61
2020/12/25 01:53:32;;;;;;;6.93;5.10;;;;;;;;;;5096340;28;20278;-61
2020/12/25 01:56:00;;;;;;;7.07;5.05;;;;;;;;;;5096693;28;20212;-60
2020/12/25 01:58:28;;;;;;;5.50;4.93;;;;;;;;;;5096634;28;20196;-60
2020/12/25 02:00:56;;;;;;;7.13;4.85;;;;;;;;;;5096553;28;20585;-60
2020/12/25 02:03:22;;;;;;;5.07;4.50;;;;;;;;;;5096328;28;20290;-60
2020/12/25 02:05:49;;;;;;;5.15;4.75;;;;;;;;;;5095778;28;20257;-60
2020/12/25 02:08:16;;;;;;;11.77;5.32;;;;;;;;;;5095505;28;20595;-60
2020/12/25 02:10:43;;;;;;;5.38;4.88;;;;;;;;;;5095988;28;20204;-60
2020/12/25 02:13:10;;;;;;;4.90;4.45;;;;;;;;;;5096437;28;20216;-59
2020/12/25 02:15:37;;;;;;;6.53;5.03;;;;;;;;;;5096370;28;20257;-60
2020/12/25 02:18:05;;;;;;;5.05;3.67;;;;;;;;;;5096345;28;20207;-60
2020/12/25 02:20:31;;;;;;;10.50;4.60;;;;;;;;;;5096734;28;20201;-59
2020/12/25 02:22:59;;;;;;;6.10;4.15;;;;;;;;;;5097156;28;20232;-60
2020/12/25 02:25:26;;;;;;;8.48;6.07;;;;;;;;;;5096906;28;20200;-60
2020/12/25 02:27:53;;;;;;;6.13;4.20;;;;;;;;;;5097782;28;20224;-60
2020/12/25 02:30:20;;;;;;;8.13;4.20;;;;;;;;;;5098085;28;20219;-62
2020/12/25 02:32:47;;;;;;;6.13;4.45;;;;;;;;;;5096931;28;20254;-60
2020/12/25 02:35:14;;;;;;;4.38;3.75;;;;;;;;;;5096777;28;20694;-60
2020/12/25 02:37:41;;;;;;;3.60;3.30;;;;;;;;;;5096296;28;20204;-60
2020/12/25 02:40:09;;;;;;;5.20;3.90;;;;;;;;;;5094721;28;20679;-60
2020/12/25 02:42:35;;;;;;;5.47;3.65;;;;;;;;;;5095207;28;20267;-60
2020/12/25 02:45:02;;;;;;;3.60;2.75;;;;;;;;;;5094993;28;20296;-61
2020/12/25 02:47:29;;;;;;;7.72;4.30;;;;;;;;;;5093827;28;20234;-61
2020/12/25 02:49:56;;;;;;;6.80;4.38;;;;;;;;;;5094763;28;20672;-60
2020/12/25 02:52:22;;;;;;;4.38;3.47;;;;;;;;;;5094843;28;20250;-61
2020/12/25 02:54:49;;;;;;;4.55;3.72;;;;;;;;;;5094786;28;20246;-60
2020/12/25 02:57:17;;;;;;;5.40;3.15;;;;;;;;;;5094727;28;20618;-60
2020/12/25 02:59:43;;;;;;;4.20;3.80;;;;;;;;;;5094947;28;20250;-61
2020/12/25 03:02:10;;;;;;;7.53;3.38;;;;;;;;;;5096100;28;20223;-60
2020/12/25 03:04:37;;;;;;;3.83;3.45;;;;;;;;;;5095182;28;20204;-60
2020/12/25 03:07:04;;;;;;;8.35;4.15;;;;;;;;;;5094340;28;20212;-61
2020/12/25 03:09:30;;;;;;;5.18;3.70;;;;;;;;;;5095327;28;20220;-60
2020/12/25 03:11:57;;;;;;;5.53;3.60;;;;;;;;;;5094899;28;20197;-61
2020/12/25 03:14:25;;;;;;;3.72;2.80;;;;;;;;;;5094861;28;20211;-62
2020/12/25 03:16:51;;;;;;;5.70;3.40;;;;;;;;;;5094679;28;20215;-61
2020/12/25 03:19:18;;;;;;;5.90;3.78;;;;;;;;;;5094492;28;20664;-61
2020/12/25 03:21:45;;;;;;;5.03;3.05;;;;;;;;;;5100090;28;20253;-61
2020/12/25 03:24:11;;;;;;;5.88;3.35;;;;;;;;;;5105087;28;20258;-61
2020/12/25 03:26:38;;;;;;;3.55;3.22;;;;;;;;;;5095500;28;20205;-61
2020/12/25 03:29:05;;;;;;;4.95;3.35;;;;;;;;;;5094939;28;20626;-62
2020/12/25 03:31:33;;;;;;;9.15;3.15;;;;;;;;;;5095617;28;20258;-61
2020/12/25 03:33:59;;;;;;;3.55;3.25;;;;;;;;;;5094904;28;20236;-60
2020/12/25 03:36:26;;;;;;;4.15;2.63;;;;;;;;;;5099097;28;20200;-60
2020/12/25 03:38:53;;;;;;;5.93;2.80;;;;;;;;;;5098899;28;20200;-61
2020/12/25 03:41:20;;;;;;;3.95;3.10;;;;;;;;;;5095729;28;20200;-60
2020/12/25 03:43:46;;;;;;;3.30;2.97;;;;;;;;;;5099114;28;20248;-59
2020/12/25 03:46:13;;;;;;;3.25;3.05;;;;;;;;;;5097235;28;20229;-60
2020/12/25 03:48:41;;;;;;;4.28;3.30;;;;;;;;;;5103967;28;20216;-61
2020/12/25 03:51:07;;;;;;;10.20;3.90;;;;;;;;;;5101703;28;20197;-60
2020/12/25 03:53:34;;;;;;;4.45;2.95;;;;;;;;;;5099241;28;20243;-60
2020/12/25 03:56:01;;;;;;;4.22;3.00;;;;;;;;;;5096341;28;20725;-61
2020/12/25 03:58:28;;;;;;;3.35;3.05;;;;;;;;;;5096278;28;20226;-61
2020/12/25 04:00:55;;;;;;;3.20;2.90;;;;;;;;;;5095065;28;20201;-60
2020/12/25 04:03:21;;;;;;;5.60;3.75;;;;;;;;;;5094513;28;20621;-59
2020/12/25 04:07:32;;;;;;;4.20;3.50;;;;;;;;;;5133020;27;21094;-59
2020/12/25 04:09:59;;;;;;;4.07;3.15;;;;;;;;;;5133633;28;20222;-60
2020/12/25 04:12:25;;;;;;;3.58;3.00;;;;;;;;;;5133216;28;20247;-60
2020/12/25 04:14:52;;;;;;;3.97;3.30;;;;;;;;;;5132827;27;20203;-60
2020/12/25 04:17:19;;;;;;;4.22;3.10;;;;;;;;;;5133116;27;20222;-60
2020/12/25 04:19:45;;;;;;;4.53;3.10;;;;;;;;;;5134122;27;20206;-60
2020/12/25 04:22:12;;;;;;;7.07;3.65;;;;;;;;;;5132468;27;20701;-60
2020/12/25 04:24:40;;;;;;;3.25;3.03;;;;;;;;;;5132283;27;20206;-59
2020/12/25 04:27:06;;;;;;;2.95;2.65;;;;;;;;;;5133344;27;20709;-60
2020/12/25 04:29:33;;;;;;;5.18;3.47;;;;;;;;;;5133468;27;20210;-60
2020/12/25 04:32:00;;;;;;;3.88;2.95;;;;;;;;;;5133952;27;20214;-59
2020/12/25 04:34:27;;;;;;;3.78;3.05;;;;;;;;;;5136617;27;20199;-60
2020/12/25 04:36:53;;;;;;;4.43;3.17;;;;;;;;;;5139413;27;20195;-60
2020/12/25 04:39:20;;;;;;;3.85;3.40;;;;;;;;;;5137811;27;20205;-59
2020/12/25 04:41:48;;;;;;;4.57;3.55;;;;;;;;;;5140643;27;20195;-59
2020/12/25 04:44:14;;;;;;;6.80;3.50;;;;;;;;;;5146022;27;20187;-60
2020/12/25 04:46:42;;;;;;;3.90;3.35;;;;;;;;;;5143892;27;20355;-60
2020/12/25 04:49:09;;;;;;;4.07;3.40;;;;;;;;;;5144381;27;20195;-60
2020/12/25 04:51:35;;;;;;;3.15;2.85;;;;;;;;;;5144456;27;20295;-60
2020/12/25 04:54:02;;;;;;;5.03;3.40;;;;;;;;;;5144012;27;20858;-59
2020/12/25 04:56:29;;;;;;;4.50;3.05;;;;;;;;;;5140016;27;20202;-59
2020/12/25 04:58:57;;;;;;;3.22;2.92;;;;;;;;;;5138736;27;20268;-60
2020/12/25 05:01:24;;;;;;;5.20;3.20;;;;;;;;;;5137182;27;20742;-60
2020/12/25 05:03:51;;;;;;;4.38;3.13;;;;;;;;;;5134667;27;20303;-59
2020/12/25 05:06:18;;;;;;;3.63;3.15;;;;;;;;;;5131754;27;20702;-59
2020/12/25 05:08:45;;;;;;;3.33;3.03;;;;;;;;;;5131658;27;20206;-60
2020/12/25 05:11:14;;;;;;;4.32;2.92;;;;;;;;;;5132471;27;20592;-60
2020/12/25 05:13:44;;;;;;;6.70;2.72;;;;;;;;;;5132297;27;20751;-59
2020/12/25 05:16:12;;;;;;;8.70;3.40;;;;;;;;;;5131874;27;20230;-59
2020/12/25 05:18:41;;;;;;;3.90;2.92;;;;;;;;;;5119830;27;20604;-60
2020/12/25 05:21:10;;;;;;;5.22;2.78;;;;;;;;;;5118047;28;20203;-59
2020/12/25 05:23:37;;;;;;;3.70;2.53;;;;;;;;;;5121505;28;20223;-59
2020/12/25 05:26:05;;;;;;;4.10;3.63;;;;;;;;;;5129612;28;20219;-59
2020/12/25 05:28:34;;;;;;;4.10;3.15;;;;;;;;;;5121374;28;20204;-60
2020/12/25 05:31:01;;;;;;;4.78;3.03;;;;;;;;;;5119054;28;20257;-60
2020/12/25 05:33:28;;;;;;;8.80;2.90;;;;;;;;;;5117598;28;20227;-59
2020/12/25 05:35:56;;;;;;;6.82;3.03;;;;;;;;;;5117324;28;20683;-59
2020/12/25 05:38:23;;;;;;;8.82;3.60;;;;;;;;;;5116754;28;20272;-60
2020/12/25 05:40:50;;;;;;;5.20;3.00;;;;;;;;;;5116978;28;20199;-61
2020/12/25 05:43:18;;;;;;;4.47;3.80;;;;;;;;;;5116459;28;20226;-61
2020/12/25 05:45:45;;;;;;;4.47;2.70;;;;;;;;;;5116497;28;20211;-59
2020/12/25 05:48:12;;;;;;;2.60;2.40;;;;;;;;;;5116329;28;20604;-59
2020/12/25 05:50:40;;;;;;;4.50;3.25;;;;;;;;;;5116043;28;20740;-60
2020/12/25 05:53:07;;;;;;;3.45;3.15;;;;;;;;;;5116599;27;20572;-60
2020/12/25 05:55:34;;;;;;;3.05;2.75;;;;;;;;;;5116661;27;20195;-60
2020/12/25 05:58:03;;;;;;;5.43;3.50;;;;;;;;;;5116462;28;20200;-60
2020/12/25 06:00:31;;;;;;;3.05;2.78;;;;;;;;;;5116242;28;20549;-60
2020/12/25 06:02:58;;;;;;;4.03;3.17;;;;;;;;;;5115990;28;20272;-59
2020/12/25 06:05:26;;;;;;;3.03;2.70;;;;;;;;;;5116745;28;20698;-60
2020/12/25 06:07:54;;;;;;;5.43;3.13;;;;;;;;;;5116056;28;20229;-61
2020/12/25 06:10:22;;;;;;;4.00;2.90;;;;;;;;;;5116407;28;20595;-60
2020/12/25 06:12:49;;;;;;;3.40;3.05;;;;;;;;;;5116344;28;20223;-59
2020/12/25 06:15:26;;;;;;;3.58;2.95;;;;;;;;;;5116394;28;20199;-59
2020/12/25 06:17:58;;;;;;;4.25;2.90;;;;;;;;;;5116286;28;20574;-59
2020/12/25 06:20:25;;;;;;;4.10;3.58;;;;;;;;;;5116089;28;20615;-60
2020/12/25 06:22:52;;;;;;;7.80;3.72;;;;;;;;;;5115757;28;20263;-60
2020/12/25 06:25:22;;;;;;;4.68;3.50;;;;;;;;;;5115413;28;20206;-60
2020/12/25 06:27:49;;;;;;;8.02;3.90;;;;;;;;;;5116103;28;20204;-60
2020/12/25 06:30:23;;;;;;;4.72;3.15;;;;;;;;;;5115434;28;20195;-60
2020/12/25 06:32:50;;;;;;;3.85;3.05;;;;;;;;;;5116244;28;20649;-61
2020/12/25 06:35:17;;;;;;;4.53;4.07;;;;;;;;;;5117000;28;20578;-59
2020/12/25 06:37:43;;;;;;;5.15;3.30;;;;;;;;;;5116696;28;20203;-59
2020/12/25 06:40:10;;;;;;;6.93;5.18;;;;;;;;;;5116287;28;20211;-58
2020/12/25 06:42:38;;;;;;;4.30;3.72;;;;;;;;;;5115917;28;20223;-60
2020/12/25 06:45:06;;;;;;;4.60;3.85;;;;;;;;;;5115882;28;20204;-60
2020/12/25 06:47:34;;;;;;;6.30;4.05;;;;;;;;;;5116718;28;20222;-59
2020/12/25 06:50:08;;;;;;;5.05;3.88;;;;;;;;;;5117570;28;20223;-61
2020/12/25 06:52:51;;;;;;;6.20;4.25;;;;;;;;;;5117713;28;20223;-60
2020/12/25 06:55:17;;;;;;;5.13;4.57;;;;;;;;;;5116187;28;20180;-59
2020/12/25 06:57:47;;;;;;;5.78;4.80;;;;;;;;;;5115606;28;20195;-60
2020/12/25 07:00:13;;;;;;;9.35;6.30;;;;;;;;;;5115279;28;20593;-59
2020/12/25 07:02:41;;;;;;;6.95;4.93;;;;;;;;;;5115389;28;20624;-60
2020/12/25 07:05:08;;;;;;;8.30;5.25;;;;;;;;;;5116146;28;20200;-59
2020/12/25 07:07:35;;;;;;;6.57;4.70;;;;;;;;;;5115942;28;20200;-60
2020/12/25 07:10:02;;;;;;;5.55;4.90;;;;;;;;;;5115834;28;20320;-60
2020/12/25 07:12:29;;;;;;;7.30;5.07;;;;;;;;;;5115441;28;20220;-60
2020/12/25 07:14:57;;;;;;;5.20;4.25;;;;;;;;;;5114802;28;20203;-61
2020/12/25 07:17:24;;;;;;;5.45;4.20;;;;;;;;;;5114723;28;20662;-60
2020/12/25 07:19:51;;;;;;;10.40;5.13;;;;;;;;;;5115947;28;20291;-59
2020/12/25 07:22:17;;;;;;;5.93;5.25;;;;;;;;;;5114980;27;20220;-59
2020/12/25 07:24:44;;;;;;;5.00;4.45;;;;;;;;;;5114816;28;20562;-60
2020/12/25 07:27:11;;;;;;;6.53;4.70;;;;;;;;;;5115065;28;20619;-59
2020/12/25 07:29:38;;;;;;;11.52;5.30;;;;;;;;;;5115013;28;20199;-60
2020/12/25 07:32:06;;;;;;;5.38;4.47;;;;;;;;;;5122227;28;20250;-60
2020/12/25 07:34:33;;;;;;;8.70;4.80;;;;;;;;;;5122014;28;20200;-60
2020/12/25 07:37:00;;;;;;;8.00;4.78;;;;;;;;;;5114693;28;20200;-60
2020/12/25 07:39:27;;;;;;;7.25;5.05;;;;;;;;;;5114975;28;20576;-59
2020/12/25 07:41:54;;;;;;;7.65;5.25;;;;;;;;;;5114052;28;20203;-60
2020/12/25 07:44:21;;;;;;;7.90;4.50;;;;;;;;;;5114349;28;20203;-60
2020/12/25 07:46:48;;;;;;;6.53;5.70;;;;;;;;;;5114551;28;20622;-60
2020/12/25 07:49:18;;;;;;;7.47;5.00;;;;;;;;;;5114857;28;20195;-60
2020/12/25 07:51:45;;;;;;;8.70;5.55;;;;;;;;;;5114741;28;20195;-59
2020/12/25 07:54:11;;;;;;;10.35;5.93;;;;;;;;;;5115078;28;20211;-59
2020/12/25 07:56:38;;;;;;;8.20;5.30;;;;;;;;;;5115587;28;20207;-60
2020/12/25 07:59:05;;;;;;;7.07;4.97;;;;;;;;;;5114279;28;20199;-61
2020/12/25 08:01:33;;;;;;;7.65;5.22;;;;;;;;;;5114104;28;20207;-60
2020/12/25 08:04:00;;;;;;;10.00;5.50;;;;;;;;;;5114476;28;20230;-60
2020/12/25 08:06:28;;;;;;;10.70;5.30;;;;;;;;;;5114742;28;20234;-60
2020/12/25 08:08:59;;;;;;;8.80;5.75;;;;;;;;;;5114812;28;20248;-60
2020/12/25 08:11:26;;;;;;;9.00;5.20;;;;;;;;;;5115068;28;20184;-58
2020/12/25 08:13:54;;;;;;;9.60;6.93;;;;;;;;;;5114517;28;20222;-60
2020/12/25 08:16:21;;;;;;;11.63;5.97;;;;;;;;;;5113779;28;20199;-59
2020/12/25 08:18:48;;;;;;;6.30;5.60;;;;;;;;;;5114149;28;20200;-60
2020/12/25 08:21:15;;;;;;;11.77;5.90;;;;;;;;;;5113959;28;20237;-60
2020/12/25 08:23:43;;;;;;;7.85;6.50;;;;;;;;;;5113854;28;20819;-61
2020/12/25 08:26:10;;;;;;;8.95;6.22;;;;;;;;;;5113826;28;20264;-60
2020/12/25 08:28:36;;;;;;;15.75;6.38;;;;;;;;;;5113733;28;20199;-60
2020/12/25 08:31:13;;;;;;;10.32;6.55;;;;;;;;;;5114311;28;20249;-59
2020/12/25 08:33:40;;;;;;;11.10;7.03;;;;;;;;;;5114481;28;20243;-59
2020/12/25 08:36:09;;;;;;;9.30;6.40;;;;;;;;;;5114643;28;20204;-59
2020/12/25 08:38:41;;;;;;;9.20;6.20;;;;;;;;;;5114435;28;20206;-60
2020/12/25 08:41:08;;;;;;;11.40;7.22;;;;;;;;;;5114914;28;20280;-60
2020/12/25 08:43:35;;;;;;;14.02;7.55;;;;;;;;;;5114576;28;20228;-61
2020/12/25 08:46:03;;;;;;;13.23;6.88;;;;;;;;;;5114870;28;20220;-60
2020/12/25 08:48:30;;;;;;;9.05;6.47;;;;;;;;;;5114188;28;20303;-60
2020/12/25 08:51:06;;;;;;;10.18;6.80;;;;;;;;;;5113886;28;20200;-60
2020/12/25 08:53:33;;;;;;;11.57;6.20;;;;;;;;;;5117217;28;20243;-59
2020/12/25 08:56:13;;;;;;;10.07;6.00;;;;;;;;;;5118191;28;20195;-60
2020/12/25 08:58:40;;;;;;;10.70;7.25;;;;;;;;;;5118253;28;20184;-60
2020/12/25 09:01:07;;;;;;;12.43;7.30;;;;;;;;;;5121226;28;20225;-60
2020/12/25 09:03:38;;;;;;;11.27;7.55;;;;;;;;;;5132770;28;20223;-60
2020/12/25 09:06:04;;;;;;;13.65;7.32;;;;;;;;;;5135200;28;20223;-58
2020/12/25 09:08:31;;;;;;;10.27;6.57;;;;;;;;;;5133281;28;20234;-59
2020/12/25 09:10:58;;;;;;;10.93;7.35;;;;;;;;;;5133653;28;20204;-59
2020/12/25 09:13:25;;;;;;;12.88;7.80;;;;;;;;;;5131699;28;20249;-59
2020/12/25 09:15:52;;;;;;;14.02;7.53;;;;;;;;;;5133587;28;20667;-60
2020/12/25 09:18:19;;;;;;;9.15;6.53;;;;;;;;;;5127683;28;20578;-60
2020/12/25 09:20:46;;;;;;;14.23;7.00;;;;;;;;;;5125983;28;20202;-59
2020/12/25 09:23:12;;;;;;;14.57;6.88;;;;;;;;;;5118844;27;20227;-59
2020/12/25 09:25:39;;;;;;;11.60;5.53;;;;;;;;;;5117533;28;20339;-59
2020/12/25 09:28:06;;;;;;;8.68;5.60;;;;;;;;;;5117549;28;20287;-60
2020/12/25 09:30:33;;;;;;;9.95;6.50;;;;;;;;;;5117687;28;20562;-60
2020/12/25 09:33:00;;;;;;;12.73;6.68;;;;;;;;;;5117310;28;20226;-60
2020/12/25 09:35:27;;;;;;;10.50;7.10;;;;;;;;;;5117652;28;20255;-60
2020/12/25 09:37:54;;;;;;;8.90;6.57;;;;;;;;;;5118369;28;20192;-61
2020/12/25 09:40:20;;;;;;;13.23;7.72;;;;;;;;;;5118980;28;20199;-58
2020/12/25 09:42:47;;;;;;;10.38;6.50;;;;;;;;;;5117540;28;20222;-60
2020/12/25 09:45:14;;;;;;;12.13;7.38;;;;;;;;;;5117710;28;20562;-60
2020/12/25 09:47:41;;;;;;;11.38;5.90;;;;;;;;;;5116712;27;20227;-60
2020/12/25 09:50:08;;;;;;;8.10;5.20;;;;;;;;;;5116805;28;20200;-59
2020/12/25 09:52:35;;;;;;;7.15;5.47;;;;;;;;;;5116745;28;20215;-60
2020/12/25 09:55:02;;;;;;;8.05;4.95;;;;;;;;;;5117086;28;20248;-60
2020/12/25 09:57:29;;;;;;;7.03;5.75;;;;;;;;;;5116576;28;20199;-60
2020/12/25 09:59:56;;;;;;;13.85;6.97;;;;;;;;;;5117292;28;20207;-59
2020/12/25 10:02:22;;;;;;;9.05;4.65;;;;;;;;;;5116795;28;20219;-60
2020/12/25 10:04:49;;;;;;;8.25;4.95;;;;;;;;;;5116718;28;20200;-60
2020/12/25 10:07:17;;;;;;;8.15;5.13;;;;;;;;;;5116168;28;20272;-61
2020/12/25 10:09:44;;;;;;;9.40;5.13;;;;;;;;;;5116769;28;20252;-59
2020/12/25 10:12:10;;;;;;;7.90;4.93;;;;;;;;;;5116516;28;20227;-60
2020/12/25 10:14:37;;;;;;;10.88;4.53;;;;;;;;;;5116059;28;20667;-60
2020/12/25 10:17:04;;;;;;;6.78;4.80;;;;;;;;;;5115752;28;20286;-59
2020/12/25 10:19:31;;;;;;;6.60;4.90;;;;;;;;;;5115915;28;20211;-60
2020/12/25 10:21:57;;;;;;;4.07;3.60;;;;;;;;;;5115696;28;20199;-59
2020/12/25 10:24:25;;;;;;;7.70;3.70;;;;;;;;;;5116700;28;20199;-59
2020/12/25 10:26:52;;;;;;;5.03;3.58;;;;;;;;;;5116333;28;20211;-60
2020/12/25 10:29:18;;;;;;;6.78;3.53;;;;;;;;;;5116027;28;20203;-60
2020/12/25 10:31:48;;;;;;;7.43;3.30;;;;;;;;;;5115619;28;20200;-60
2020/12/25 10:34:15;;;;;;;4.88;3.45;;;;;;;;;;5117311;28;20196;-58
2020/12/25 10:36:42;;;;;;;6.10;3.90;;;;;;;;;;5117414;28;20541;-59
2020/12/25 10:39:10;;;;;;;7.88;3.58;;;;;;;;;;5116701;28;20210;-60
2020/12/25 10:41:38;;;;;;;6.97;3.30;;;;;;;;;;5116172;28;20221;-59
2020/12/25 10:44:05;;;;;;;6.75;3.40;;;;;;;;;;5117551;28;20204;-60
2020/12/25 10:46:31;;;;;;;7.22;3.13;;;;;;;;;;5117589;28;20699;-60
2020/12/25 10:48:58;;;;;;;5.32;2.90;;;;;;;;;;5118927;28;20200;-60
2020/12/25 10:51:25;;;;;;;4.25;2.58;;;;;;;;;;5121300;28;20207;-60
2020/12/25 10:53:51;;;;;;;3.80;2.63;;;;;;;;;;5124102;28;20711;-60
2020/12/25 10:56:21;;;;;;;4.55;2.28;;;;;;;;;;5123214;28;20206;-60
2020/12/25 10:58:49;;;;;;;5.00;2.50;;;;;;;;;;5122194;28;20218;-60
2020/12/25 11:01:25;;;;;;;4.13;2.38;;;;;;;;;;5117150;28;20203;-60
2020/12/25 11:03:52;;;;;;;2.70;1.70;;;;;;;;;;5115394;27;20276;-60
2020/12/25 11:06:19;;;;;;;4.10;2.28;;;;;;;;;;5114757;28;20242;-60
2020/12/25 11:08:47;;;;;;;6.63;2.42;;;;;;;;;;5115230;28;20199;-59
2020/12/25 11:11:14;;;;;;;5.00;1.92;;;;;;;;;;5115460;28;20291;-60
2020/12/25 11:13:42;;;;;;;4.60;2.58;;;;;;;;;;5115142;28;20220;-60
2020/12/25 11:16:09;;;;;;;5.68;1.77;;;;;;;;;;5115424;28;20202;-60
2020/12/25 11:18:36;;;;;;;5.70;2.15;;;;;;;;;;5115382;28;20195;-60
2020/12/25 11:21:03;;;;;;;5.35;1.70;;;;;;;;;;5115170;28;20199;-61
2020/12/25 11:23:29;;;;;;;3.15;2.00;;;;;;;;;;5115005;28;20219;-60
2020/12/25 11:25:56;;;;;;;5.82;1.98;;;;;;;;;;5114149;28;20210;-59
2020/12/25 11:28:23;;;;;;;4.60;2.22;;;;;;;;;;5114476;28;20207;-60
2020/12/25 11:30:49;;;;;;;2.45;1.65;;;;;;;;;;5114679;28;20618;-60
2020/12/25 11:33:21;;;;;;;3.60;2.10;;;;;;;;;;5114152;28;20277;-59
2020/12/25 11:35:48;;;;;;;4.13;1.90;;;;;;;;;;5114593;28;20609;-60
2020/12/25 11:38:15;;;;;;;5.88;2.00;;;;;;;;;;5114310;28;20203;-59
2020/12/25 11:40:41;;;;;;;4.18;2.05;;;;;;;;;;5114483;28;20197;-60
2020/12/25 11:43:08;;;;;;;1.85;1.23;;;;;;;;;;5121341;28;20227;-60
2020/12/25 11:45:35;;;;;;;2.60;1.80;;;;;;;;;;5118187;28;20207;-60
2020/12/25 11:48:02;;;;;;;5.78;1.90;;;;;;;;;;5114428;28;20219;-60
2020/12/25 11:50:29;;;;;;;3.90;2.03;;;;;;;;;;5113919;28;20210;-60
2020/12/25 11:52:56;;;;;;;8.32;1.95;;;;;;;;;;5113740;28;20710;-61
2020/12/25 11:55:23;;;;;;;2.72;1.80;;;;;;;;;;5114265;28;20214;-59
2020/12/25 11:57:49;;;;;;;4.13;1.90;;;;;;;;;;5114213;28;20195;-60
2020/12/25 12:00:16;;;;;;;3.78;1.70;;;;;;;;;;5113637;28;20206;-62
2020/12/25 12:02:43;;;;;;;4.53;1.55;;;;;;;;;;5113996;28;20223;-60
2020/12/25 12:05:09;;;;;;;4.57;1.67;;;;;;;;;;5113786;28;20558;-59
2020/12/25 12:07:37;;;;;;;3.40;1.45;;;;;;;;;;5113955;28;20200;-60
2020/12/25 12:10:04;;;;;;;7.93;2.83;;;;;;;;;;5114198;28;20265;-59
2020/12/25 12:12:31;;;;;;;5.00;2.13;;;;;;;;;;5113963;28;20219;-59
2020/12/25 12:14:57;;;;;;;3.00;1.70;;;;;;;;;;5113430;28;20204;-60
2020/12/25 12:17:24;;;;;;;5.03;2.00;;;;;;;;;;5113700;28;20199;-60
2020/12/25 12:19:51;;;;;;;4.22;1.77;;;;;;;;;;5113869;28;20204;-59
2020/12/25 12:22:17;;;;;;;12.32;2.10;;;;;;;;;;5112400;28;20223;-60
2020/12/25 12:24:45;;;;;;;2.35;1.77;;;;;;;;;;5114474;28;20302;-60
2020/12/25 12:27:12;;;;;;;2.20;2.00;;;;;;;;;;5114463;28;20211;-60
2020/12/25 12:29:38;;;;;;;5.57;1.60;;;;;;;;;;5118281;28;20671;-60
2020/12/25 12:32:05;;;;;;;3.42;1.80;;;;;;;;;;5118198;28;20234;-59
2020/12/25 12:34:32;;;;;;;3.35;1.92;;;;;;;;;;5118473;28;20203;-60
2020/12/25 12:36:59;;;;;;;6.03;2.08;;;;;;;;;;5118165;28;20199;-59
2020/12/25 12:39:25;;;;;;;2.83;1.40;;;;;;;;;;5118887;28;20230;-59
2020/12/25 12:41:53;;;;;;;3.47;1.60;;;;;;;;;;5119578;28;20306;-60
2020/12/25 12:44:20;;;;;;;2.85;1.70;;;;;;;;;;5119817;28;20226;-59
2020/12/25 12:46:46;;;;;;;2.30;1.30;;;;;;;;;;5117773;28;20211;-59
2020/12/25 12:49:13;;;;;;;4.75;1.40;;;;;;;;;;5117311;28;20199;-60
2020/12/25 12:51:40;;;;;;;4.05;1.30;;;;;;;;;;5117536;28;20260;-61
2020/12/25 12:54:06;;;;;;;3.15;1.70;;;;;;;;;;5118011;28;20199;-59
2020/12/25 12:56:33;;;;;;;5.55;1.60;;;;;;;;;;5118483;28;20260;-61
2020/12/25 12:59:01;;;;;;;7.55;2.40;;;;;;;;;;5117485;28;20203;-60
2020/12/25 13:01:27;;;;;;;4.60;1.10;;;;;;;;;;5117262;28;20196;-59
2020/12/25 13:03:54;;;;;;;2.05;1.27;;;;;;;;;;5117484;28;20503;-60
2020/12/25 13:06:21;;;;;;;8.50;1.50;;;;;;;;;;5116624;28;20219;-60
2020/12/25 13:08:48;;;;;;;4.50;1.60;;;;;;;;;;5117109;28;20196;-60
2020/12/25 13:11:14;;;;;;;2.58;1.70;;;;;;;;;;5117153;28;20277;-59
2020/12/25 13:13:41;;;;;;;1.27;1.17;;;;;;;;;;5116835;28;20223;-60
2020/12/25 13:16:09;;;;;;;5.25;1.17;;;;;;;;;;5117093;28;20252;-59
2020/12/25 13:18:35;;;;;;;3.25;1.10;;;;;;;;;;5118258;28;20207;-60
2020/12/25 13:21:02;;;;;;;3.40;1.23;;;;;;;;;;5118166;27;20200;-60
2020/12/25 13:23:29;;;;;;;2.65;1.73;;;;;;;;;;5118486;28;20768;-59
2020/12/25 13:25:55;;;;;;;2.00;1.27;;;;;;;;;;5117855;28;20200;-60
2020/12/25 13:28:22;;;;;;;2.75;1.20;;;;;;;;;;5120202;28;20256;-60
2020/12/25 13:30:49;;;;;;;3.92;1.73;;;;;;;;;;5122830;28;20662;-59
2020/12/25 13:33:16;;;;;;;3.80;1.50;;;;;;;;;;5118073;27;20220;-59
2020/12/25 13:35:43;;;;;;;3.65;1.05;;;;;;;;;;5117098;28;20683;-60
2020/12/25 13:38:10;;;;;;;12.43;2.25;;;;;;;;;;5116894;28;20245;-60
2020/12/25 13:40:36;;;;;;;7.63;1.60;;;;;;;;;;5117217;28;20252;-60
2020/12/25 13:43:03;;;;;;;2.25;1.25;;;;;;;;;;5116514;28;20723;-60
2020/12/25 13:45:30;;;;;;;2.85;1.35;;;;;;;;;;5116895;28;20200;-59
2020/12/25 13:47:57;;;;;;;3.20;1.20;;;;;;;;;;5116328;28;20219;-59
2020/12/25 13:50:24;;;;;;;5.35;1.63;;;;;;;;;;5116860;27;20199;-59
2020/12/25 13:52:51;;;;;;;4.07;1.88;;;;;;;;;;5116746;28;20220;-60
2020/12/25 13:55:18;;;;;;;2.22;1.02;;;;;;;;;;5116442;28;20196;-60
2020/12/25 13:57:44;;;;;;;1.70;1.00;;;;;;;;;;5117129;28;20214;-59
2020/12/25 14:00:11;;;;;;;3.50;1.20;;;;;;;;;;5117396;28;20204;-59
2020/12/25 14:02:38;;;;;;;2.63;1.08;;;;;;;;;;5117149;28;20220;-59
2020/12/25 14:05:05;;;;;;;4.55;1.35;;;;;;;;;;5117029;28;20202;-60
2020/12/25 14:07:32;;;;;;;3.10;1.55;;;;;;;;;;5116891;28;20220;-60
2020/12/25 14:09:59;;;;;;;4.55;1.60;;;;;;;;;;5116833;27;20196;-59
2020/12/25 14:12:26;;;;;;;2.17;1.00;;;;;;;;;;5116620;27;20245;-60
2020/12/25 14:14:52;;;;;;;1.80;1.20;;;;;;;;;;5117118;28;20200;-59
2020/12/25 14:17:19;;;;;;;2.97;1.33;;;;;;;;;;5117003;28;20199;-60
2020/12/25 14:19:46;;;;;;;2.50;1.10;;;;;;;;;;5117435;28;20203;-60
2020/12/25 14:22:12;;;;;;;3.53;1.45;;;;;;;;;;5116934;28;20714;-59
2020/12/25 14:24:40;;;;;;;4.38;1.70;;;;;;;;;;5117212;28;20245;-59
2020/12/25 14:27:07;;;;;;;2.17;1.30;;;;;;;;;;5116641;28;20222;-60
2020/12/25 14:29:33;;;;;;;4.40;1.63;;;;;;;;;;5116506;28;20618;-59
2020/12/25 14:32:00;;;;;;;2.10;1.58;;;;;;;;;;5116323;28;20225;-60
2020/12/25 14:34:27;;;;;;;6.07;1.95;;;;;;;;;;5116695;28;20249;-60
2020/12/25 14:36:55;;;;;;;5.53;1.60;;;;;;;;;;5116123;28;20207;-59
2020/12/25 14:39:22;;;;;;;4.13;2.00;;;;;;;;;;5115531;28;20236;-60
2020/12/25 14:41:50;;;;;;;2.53;1.55;;;;;;;;;;5115481;28;20203;-61